TimeMDT,TemperatureF,Dew PointF,Humidity,Sea Level PressureIn,VisibilityMPH,Wind Direction,Wind SpeedMPH,Gust SpeedMPH,PrecipitationIn,Events,Conditions,WindDirDegrees,DateUTC
12:39 AM,64.4,57.2,77,30.34,10.0,North,3.5,-,N/A,Thunderstorm,Thunderstorm,360,2013-07-11 06:39:00
12:53 AM,64.0,57.9,80,29.98,10.0,ENE,3.5,-,N/A,Thunderstorm,Overcast,60,2013-07-11 06:53:00
1:29 AM,62.6,57.2,82,30.34,10.0,NE,9.2,-,N/A,,Overcast,50,2013-07-11 07:29:00
1:53 AM,63.0,57.0,81,29.99,10.0,ENE,5.8,-,N/A,,Overcast,70,2013-07-11 07:53:00
2:53 AM,61.0,55.9,83,29.99,10.0,NE,8.1,-,N/A,,Scattered Clouds,40,2013-07-11 08:53:00
3:53 AM,60.1,57.0,90,30.34,10.0,ENE,8.1,-,N/A,,Scattered Clouds,70,2013-07-11 09:53:00
4:53 AM,57.9,55.0,90,30.06,10.0,North,3.5,-,N/A,,Clear,350,2013-07-11 10:53:00
5:53 AM,57.9,55.9,93,30.06,10.0,NNE,3.5,-,N/A,,Mostly Cloudy,30,2013-07-11 11:53:00
6:53 AM,60.1,57.0,90,30.07,10.0,ESE,3.5,-,N/A,,Overcast,110,2013-07-11 12:53:00
7:49 AM,60.8,57.2,88,30.37,10.0,SSE,9.2,-,N/A,,Mostly Cloudy,160,2013-07-11 13:49:00
7:53 AM,62.1,57.9,86,30.07,10.0,South,10.4,-,N/A,,Mostly Cloudy,170,2013-07-11 13:53:00
8:53 AM,64.0,59.0,84,30.04,10.0,SW,10.4,-,N/A,,Mostly Cloudy,230,2013-07-11 14:53:00
9:02 AM,62.6,57.2,82,30.36,10.0,SW,11.5,-,N/A,,Mostly Cloudy,220,2013-07-11 15:02:00
9:09 AM,64.4,57.2,77,30.35,10.0,SW,11.5,-,N/A,,Scattered Clouds,230,2013-07-11 15:09:00
9:53 AM,64.9,57.9,78,30.04,10.0,SW,12.7,-,N/A,,Clear,220,2013-07-11 15:53:00
10:53 AM,69.1,59.0,70,30.01,10.0,SSW,18.4,-,N/A,,Partly Cloudy,210,2013-07-11 16:53:00
11:53 AM,70.0,57.0,63,29.99,10.0,SSW,18.4,-,0.01,,Clear,200,2013-07-11 17:53:00
12:53 PM,73.9,55.9,53,29.95,10.0,SSW,18.4,-,N/A,,Clear,200,2013-07-11 18:53:00
1:53 PM,77.0,54.0,45,29.92,10.0,SSW,12.7,-,N/A,,Clear,200,2013-07-11 19:53:00
2:53 PM,78.1,51.1,39,29.90,10.0,SSW,11.5,-,N/A,,Clear,200,2013-07-11 20:53:00
3:53 PM,78.1,51.1,39,29.89,10.0,SSE,15.0,-,N/A,,Clear,160,2013-07-11 21:53:00
4:53 PM,75.9,55.9,50,29.90,10.0,SSE,20.7,-,N/A,,Clear,150,2013-07-11 22:53:00
5:53 PM,78.1,51.1,39,29.88,10.0,SSE,20.7,-,N/A,,Clear,160,2013-07-11 23:53:00
6:53 PM,75.0,51.1,43,29.87,10.0,South,18.4,-,N/A,,Clear,190,2013-07-12 00:53:00
7:53 PM,72.0,53.1,51,29.89,10.0,South,12.7,-,N/A,,Clear,170,2013-07-12 01:53:00
8:53 PM,69.1,57.9,68,29.90,10.0,South,16.1,-,N/A,,Clear,170,2013-07-12 02:53:00
9:53 PM,66.9,55.9,68,29.93,10.0,South,12.7,-,N/A,,Clear,180,2013-07-12 03:53:00
10:53 PM,64.9,55.0,70,29.93,10.0,SSW,9.2,-,N/A,,Clear,200,2013-07-12 04:53:00
11:53 PM,64.9,55.0,70,29.93,10.0,SW,10.4,-,N/A,,Scattered Clouds,220,2013-07-12 05:53:00